createdAt,value
2023-12-20T00:01:25.134Z,100.00
2023-12-20T00:03:53.510Z,100.00
2023-12-20T00:06:21.616Z,91.03
2023-12-20T00:08:49.893Z,85.70
2023-12-20T00:11:17.861Z,85.76
2023-12-20T00:13:48.546Z,80.65
2023-12-20T00:16:19.619Z,78.43
2023-12-20T00:18:47.754Z,73.67
2023-12-20T00:21:15.968Z,71.64
2023-12-20T00:23:43.943Z,70.13
2023-12-20T00:26:11.883Z,69.94
2023-12-20T00:28:40.054Z,69.14
2023-12-20T00:31:08.259Z,69.40
2023-12-20T00:33:37.867Z,67.63
2023-12-20T00:36:07.063Z,69.42
2023-12-20T00:38:35.152Z,68.50
2023-12-20T00:41:03.514Z,68.99
2023-12-20T00:43:31.482Z,68.21
2023-12-20T00:46:01.343Z,68.62
2023-12-20T00:48:31.539Z,68.23
2023-12-20T00:51:01.085Z,68.24
2023-12-20T00:53:29.035Z,67.98
2023-12-20T00:55:57.219Z,68.06
2023-12-20T00:58:25.170Z,69.23
2023-12-20T01:00:53.334Z,69.02
2023-12-20T01:03:21.473Z,68.66
2023-12-20T01:05:49.631Z,69.87
2023-12-20T01:08:19.007Z,70.62
2023-12-20T01:10:48.089Z,71.97
2023-12-20T01:13:16.352Z,72.34
2023-12-20T01:15:44.484Z,72.71
2023-12-20T01:18:12.532Z,73.27
2023-12-20T01:20:40.493Z,73.81
2023-12-20T01:23:08.479Z,75.12
2023-12-20T01:25:37.907Z,75.71
2023-12-20T01:28:06.527Z,76.20
2023-12-20T01:30:34.548Z,76.46
2023-12-20T01:33:03.131Z,77.14
2023-12-20T01:35:31.224Z,78.06
2023-12-20T01:37:59.273Z,79.17
2023-12-20T01:40:27.283Z,80.50
2023-12-20T01:43:03.655Z,82.04
2023-12-20T01:45:31.611Z,82.25
2023-12-20T01:48:01.312Z,82.98
2023-12-20T01:50:29.895Z,83.55
2023-12-20T01:52:58.945Z,84.13
2023-12-20T01:55:27.734Z,85.27
2023-12-20T01:57:56.110Z,85.47
2023-12-20T02:00:27.682Z,86.27
2023-12-20T02:02:56.409Z,86.90
2023-12-20T02:05:23.923Z,87.52
2023-12-20T02:07:51.912Z,88.73
2023-12-20T02:10:20.307Z,90.85
2023-12-20T02:12:48.287Z,92.08
2023-12-20T02:15:16.545Z,93.33
2023-12-20T02:17:46.486Z,94.28
2023-12-20T02:20:14.571Z,95.56
2023-12-20T02:22:43.903Z,95.86
2023-12-20T02:25:12.048Z,95.71
2023-12-20T02:27:40.942Z,96.23
2023-12-20T02:30:09.421Z,96.81
2023-12-20T02:32:37.425Z,96.09
2023-12-20T02:35:06.003Z,96.67
2023-12-20T02:37:35.196Z,97.56
2023-12-20T02:40:05.583Z,97.88
2023-12-20T02:42:33.583Z,97.79
2023-12-20T02:45:01.531Z,97.52
2023-12-20T02:47:30.886Z,96.87
2023-12-20T02:49:59.158Z,97.24
2023-12-20T02:52:27.526Z,97.96
2023-12-20T02:54:55.527Z,97.21
2023-12-20T02:57:24.842Z,98.06
2023-12-20T02:59:52.783Z,98.39
2023-12-20T03:02:20.739Z,98.26
2023-12-20T03:04:48.962Z,98.87
2023-12-20T03:07:17.052Z,100.00
2023-12-20T03:09:59.710Z,100.00
2023-12-20T03:12:34.416Z,100.00
2023-12-20T03:15:02.487Z,100.00
2023-12-20T03:17:30.437Z,100.00
2023-12-20T03:19:58.542Z,100.00
2023-12-20T03:22:26.618Z,100.00
2023-12-20T03:24:54.605Z,100.00
2023-12-20T03:27:22.594Z,100.00
2023-12-20T03:29:51.970Z,100.00
2023-12-20T03:32:19.936Z,100.00
2023-12-20T03:34:48.014Z,100.00
2023-12-20T03:37:16.122Z,100.00
2023-12-20T03:39:44.158Z,100.00
2023-12-20T03:42:12.096Z,100.00
2023-12-20T03:44:40.819Z,100.00
2023-12-20T03:47:10.222Z,100.00
2023-12-20T03:49:39.818Z,100.00
2023-12-20T03:52:07.957Z,100.00
2023-12-20T03:54:37.133Z,100.00
2023-12-20T03:57:05.608Z,100.00
2023-12-20T03:59:37.207Z,100.00
2023-12-20T04:02:05.418Z,100.00
2023-12-20T04:04:34.962Z,100.00
2023-12-20T04:07:03.070Z,100.00
2023-12-20T04:09:31.357Z,100.00
2023-12-20T04:11:59.372Z,100.00
2023-12-20T04:14:27.318Z,100.00
2023-12-20T04:16:55.828Z,100.00
2023-12-20T04:19:23.894Z,100.00
2023-12-20T04:21:53.299Z,100.00
2023-12-20T04:24:21.570Z,100.00
2023-12-20T04:26:49.542Z,100.00
2023-12-20T04:29:17.494Z,100.00
2023-12-20T04:31:45.569Z,100.00
2023-12-20T04:34:13.620Z,100.00
2023-12-20T04:36:41.709Z,100.00
2023-12-20T04:39:11.117Z,100.00
2023-12-20T04:41:39.139Z,100.00
2023-12-20T04:44:07.892Z,100.00
2023-12-20T04:46:36.634Z,100.00
2023-12-20T04:49:05.200Z,100.00
2023-12-20T04:51:35.429Z,100.00
2023-12-20T04:54:03.610Z,100.00
2023-12-20T04:56:32.958Z,100.00
2023-12-20T04:59:00.946Z,100.00
2023-12-20T05:01:29.024Z,100.00
2023-12-20T05:03:57.140Z,100.00
2023-12-20T05:06:25.918Z,100.00
2023-12-20T05:08:53.893Z,100.00
2023-12-20T05:11:21.882Z,100.00
2023-12-20T05:13:51.351Z,100.00
2023-12-20T05:16:20.386Z,100.00
2023-12-20T05:18:51.017Z,100.00
2023-12-20T05:21:19.046Z,100.00
2023-12-20T05:23:47.788Z,100.00
2023-12-20T05:26:15.840Z,100.00
2023-12-20T05:28:43.791Z,100.00
2023-12-20T05:31:13.267Z,100.00
2023-12-20T05:33:41.368Z,100.00
2023-12-20T05:36:12.497Z,100.00
2023-12-20T05:38:40.554Z,100.00
2023-12-20T05:41:08.539Z,100.00
2023-12-20T05:43:36.542Z,100.00
2023-12-20T05:46:04.779Z,100.00
2023-12-20T05:48:34.221Z,100.00
2023-12-20T05:51:02.248Z,100.00
2023-12-20T05:53:30.196Z,100.00
2023-12-20T05:55:58.146Z,100.00
2023-12-20T05:58:26.150Z,100.00
2023-12-20T06:00:54.207Z,100.00
2023-12-20T06:03:22.193Z,100.00
2023-12-20T06:05:52.955Z,100.00
2023-12-20T06:08:22.198Z,100.00
2023-12-20T06:10:50.389Z,100.00
2023-12-20T06:13:18.456Z,100.00
2023-12-20T06:15:46.468Z,100.00
2023-12-20T06:18:14.594Z,100.00
2023-12-20T06:20:42.602Z,100.00
2023-12-20T06:23:11.964Z,100.00
2023-12-20T06:25:40.078Z,100.00
2023-12-20T06:28:09.109Z,100.00
2023-12-20T06:30:37.246Z,100.00
2023-12-20T06:33:08.124Z,100.00
2023-12-20T06:35:37.292Z,100.00
2023-12-20T06:38:09.044Z,100.00
2023-12-20T06:40:38.821Z,100.00
2023-12-20T06:43:12.808Z,100.00
2023-12-20T06:45:49.229Z,100.00
2023-12-20T06:48:17.390Z,100.00
2023-12-20T06:50:45.369Z,100.00
2023-12-20T06:53:13.466Z,100.00
2023-12-20T06:55:42.977Z,100.00
2023-12-20T06:58:11.056Z,100.00
2023-12-20T07:00:39.377Z,100.00
2023-12-20T07:03:07.530Z,100.00
2023-12-20T07:05:35.600Z,100.00
2023-12-20T07:08:03.767Z,100.00
2023-12-20T07:10:32.050Z,100.00
2023-12-20T07:13:01.854Z,100.00
2023-12-20T07:15:30.769Z,100.00
2023-12-20T07:18:02.213Z,100.00
2023-12-20T07:20:30.410Z,100.00
2023-12-20T07:22:58.495Z,100.00
2023-12-20T07:25:27.015Z,100.00
2023-12-20T07:27:55.458Z,100.00
2023-12-20T07:30:25.086Z,100.00
2023-12-20T07:32:53.631Z,100.00
2023-12-20T07:35:21.805Z,100.00
2023-12-20T07:37:49.956Z,100.00
2023-12-20T07:40:18.652Z,100.00
2023-12-20T07:42:46.700Z,100.00
2023-12-20T07:45:14.763Z,100.00
2023-12-20T07:47:44.400Z,100.00
2023-12-20T07:50:12.820Z,100.00
2023-12-20T07:52:40.833Z,100.00
2023-12-20T07:55:09.881Z,100.00
2023-12-20T07:57:38.044Z,100.00
2023-12-20T08:00:07.458Z,100.00
2023-12-20T08:02:35.503Z,100.00
2023-12-20T08:05:05.267Z,100.00
2023-12-20T08:07:33.389Z,100.00
2023-12-20T08:10:02.003Z,100.00
2023-12-20T08:12:30.189Z,100.00
2023-12-20T08:14:58.405Z,100.00
2023-12-20T08:17:26.556Z,100.00
2023-12-20T08:19:54.612Z,100.00
2023-12-20T08:22:24.345Z,100.00
2023-12-20T08:24:52.451Z,100.00
2023-12-20T08:27:20.650Z,100.00
2023-12-20T08:29:48.815Z,100.00
2023-12-20T08:32:16.791Z,100.00
2023-12-20T08:34:44.825Z,100.00
2023-12-20T08:37:12.963Z,100.00
2023-12-20T08:39:45.723Z,100.00
2023-12-20T08:42:14.078Z,100.00
2023-12-20T08:44:42.069Z,100.00
2023-12-20T08:47:14.295Z,100.00
2023-12-20T08:49:42.470Z,100.00
2023-12-20T08:52:10.610Z,100.00
2023-12-20T08:54:38.857Z,100.00
2023-12-20T08:57:08.286Z,100.00
2023-12-20T08:59:36.249Z,100.00
2023-12-20T09:02:04.340Z,100.00
2023-12-20T09:04:32.455Z,100.00
2023-12-20T09:07:02.244Z,100.00
2023-12-20T09:09:30.299Z,100.00
2023-12-20T09:11:59.388Z,100.00
2023-12-20T09:14:31.437Z,100.00
2023-12-20T09:16:59.648Z,100.00
2023-12-20T09:19:28.440Z,100.00
2023-12-20T09:21:56.595Z,100.00
2023-12-20T09:24:24.565Z,100.00
2023-12-20T09:26:52.712Z,100.00
2023-12-20T09:29:20.721Z,100.00
2023-12-20T09:31:51.251Z,100.00
2023-12-20T09:34:19.364Z,100.00
2023-12-20T09:36:49.616Z,100.00
2023-12-20T09:39:20.290Z,100.00
2023-12-20T09:41:52.300Z,100.00
2023-12-20T09:44:20.813Z,100.00
2023-12-20T09:46:52.695Z,100.00
2023-12-20T09:49:21.501Z,100.00
2023-12-20T09:51:49.633Z,100.00
2023-12-20T09:54:18.465Z,100.00
2023-12-20T09:56:48.058Z,100.00
2023-12-20T09:59:16.373Z,100.00
2023-12-20T10:01:44.978Z,100.00
2023-12-20T10:04:26.402Z,100.00
2023-12-20T10:06:59.164Z,100.00
2023-12-20T10:09:27.302Z,100.00
2023-12-20T10:11:58.505Z,100.00
2023-12-20T10:14:26.453Z,100.00
2023-12-20T10:16:55.291Z,100.00
2023-12-20T10:19:24.842Z,100.00
2023-12-20T10:21:53.543Z,100.00
2023-12-20T10:24:23.170Z,100.00
2023-12-20T10:27:04.885Z,100.00
2023-12-20T10:29:37.818Z,100.00
2023-12-20T10:32:26.320Z,100.00
2023-12-20T10:34:57.281Z,100.00
2023-12-20T10:37:25.973Z,100.00
2023-12-20T10:39:57.544Z,100.00
2023-12-20T10:42:28.696Z,100.00
2023-12-20T10:44:56.734Z,100.00
2023-12-20T10:47:25.219Z,100.00
2023-12-20T10:49:56.073Z,100.00
2023-12-20T10:52:25.826Z,100.00
2023-12-20T10:54:53.972Z,100.00
2023-12-20T10:57:23.084Z,100.00
2023-12-20T10:59:51.869Z,100.00
2023-12-20T11:02:19.893Z,100.00
2023-12-20T11:04:55.579Z,100.00
2023-12-20T11:07:28.265Z,100.00
2023-12-20T11:10:02.008Z,100.00
2023-12-20T11:12:38.051Z,100.00
2023-12-20T11:15:06.889Z,100.00
2023-12-20T11:17:35.077Z,100.00
2023-12-20T11:20:08.318Z,100.00
2023-12-20T11:22:41.535Z,100.00
2023-12-20T11:25:11.399Z,100.00
2023-12-20T11:27:43.567Z,100.00
2023-12-20T11:30:12.968Z,100.00
2023-12-20T11:32:43.575Z,100.00
2023-12-20T11:35:21.987Z,100.00
2023-12-20T11:37:51.931Z,100.00
2023-12-20T11:40:23.131Z,100.00
2023-12-20T11:42:52.078Z,100.00
2023-12-20T11:45:23.077Z,100.00
2023-12-20T11:47:53.040Z,100.00
2023-12-20T11:50:21.625Z,100.00
2023-12-20T11:52:51.177Z,100.00
2023-12-20T11:55:19.450Z,100.00
2023-12-20T11:57:47.837Z,100.00
2023-12-20T12:00:17.277Z,100.00
2023-12-20T12:02:46.760Z,100.00
2023-12-20T12:05:17.334Z,100.00
2023-12-20T12:07:45.556Z,100.00
2023-12-20T12:10:15.052Z,100.00
2023-12-20T12:12:43.369Z,100.00
2023-12-20T12:15:11.678Z,100.00
2023-12-20T12:17:39.834Z,100.00
2023-12-20T12:20:09.767Z,100.00
2023-12-20T12:22:38.104Z,100.00
2023-12-20T12:25:14.785Z,100.00
2023-12-20T12:27:43.996Z,100.00
2023-12-20T12:30:14.070Z,100.00
2023-12-20T12:32:42.783Z,100.00
2023-12-20T12:35:11.575Z,100.00
2023-12-20T12:37:40.723Z,100.00
2023-12-20T12:40:11.620Z,100.00
2023-12-20T12:42:41.675Z,100.00
2023-12-20T12:45:10.175Z,100.00
2023-12-20T12:47:38.796Z,100.00
2023-12-20T12:50:07.548Z,100.00
2023-12-20T12:52:36.553Z,100.00
2023-12-20T12:55:06.004Z,100.00
2023-12-20T12:57:34.748Z,100.00
2023-12-20T13:00:06.098Z,100.00
2023-12-20T13:02:34.077Z,100.00
2023-12-20T13:05:04.019Z,100.00
2023-12-20T13:07:32.352Z,100.00
2023-12-20T13:10:00.450Z,100.00
2023-12-20T13:12:28.468Z,100.00
2023-12-20T13:14:56.415Z,100.00
2023-12-20T13:17:25.933Z,100.00
2023-12-20T13:19:53.958Z,100.00
2023-12-20T13:22:22.045Z,100.00
2023-12-20T13:24:50.215Z,100.00
2023-12-20T13:27:18.300Z,100.00
2023-12-20T13:29:46.501Z,100.00
2023-12-20T13:32:14.731Z,100.00
2023-12-20T13:34:44.322Z,100.00
2023-12-20T13:37:12.649Z,100.00
2023-12-20T13:39:40.695Z,100.00
2023-12-20T13:42:08.815Z,100.00
2023-12-20T13:44:36.812Z,100.00
2023-12-20T13:47:05.120Z,100.00
2023-12-20T13:49:33.246Z,100.00
2023-12-20T13:52:04.248Z,100.00
2023-12-20T13:54:32.552Z,100.00
2023-12-20T13:57:08.888Z,100.00
2023-12-20T13:59:44.641Z,100.00
2023-12-20T14:02:12.668Z,100.00
2023-12-20T14:04:43.754Z,100.00
2023-12-20T14:07:13.872Z,100.00
2023-12-20T14:09:46.420Z,100.00
2023-12-20T14:12:14.957Z,100.00
2023-12-20T14:14:43.092Z,100.00
2023-12-20T14:17:11.307Z,100.00
2023-12-20T14:19:40.815Z,100.00
2023-12-20T14:22:08.967Z,100.00
2023-12-20T14:24:38.864Z,100.00
2023-12-20T14:27:08.140Z,100.00
2023-12-20T14:29:36.130Z,100.00
2023-12-20T14:32:06.234Z,100.00
2023-12-20T14:34:34.303Z,100.00
2023-12-20T14:37:01.410Z,100.00
2023-12-20T14:39:29.451Z,100.00
2023-12-20T14:41:58.836Z,100.00
2023-12-20T14:44:26.933Z,100.00
2023-12-20T14:46:54.924Z,100.00
2023-12-20T14:49:22.957Z,100.00
2023-12-20T14:51:51.021Z,100.00
2023-12-20T14:54:19.104Z,100.00
2023-12-20T14:56:47.390Z,100.00
2023-12-20T14:59:16.705Z,100.00
2023-12-20T15:01:45.792Z,100.00
2023-12-20T15:04:13.993Z,100.00
2023-12-20T15:06:42.002Z,100.00
2023-12-20T15:09:10.515Z,100.00
2023-12-20T15:11:38.561Z,100.00
2023-12-20T15:14:07.670Z,100.00
2023-12-20T15:16:37.563Z,100.00
2023-12-20T15:19:05.904Z,100.00
2023-12-20T15:21:42.916Z,100.00
2023-12-20T15:24:16.173Z,100.00
2023-12-20T15:26:44.957Z,100.00
2023-12-20T15:29:14.694Z,100.00
2023-12-20T15:31:46.665Z,100.00
2023-12-20T15:34:15.352Z,100.00
2023-12-20T15:36:44.590Z,100.00
2023-12-20T15:39:15.486Z,100.00
2023-12-20T15:41:43.880Z,100.00
2023-12-20T15:44:11.858Z,100.00
2023-12-20T15:46:40.792Z,100.00
2023-12-20T15:49:12.121Z,100.00
2023-12-20T15:51:40.334Z,100.00
2023-12-20T15:54:09.554Z,100.00
2023-12-20T15:56:37.869Z,100.00
2023-12-20T15:59:06.026Z,100.00
2023-12-20T16:01:34.091Z,100.00
2023-12-20T16:04:02.390Z,100.00
2023-12-20T16:06:31.830Z,100.00
2023-12-20T16:09:01.787Z,100.00
2023-12-20T16:11:30.533Z,100.00
2023-12-20T16:13:58.491Z,100.00
2023-12-20T16:16:26.519Z,100.00
2023-12-20T16:18:54.569Z,100.00
2023-12-20T16:21:22.645Z,100.00
2023-12-20T16:23:51.984Z,100.00
2023-12-20T16:26:19.957Z,100.00
2023-12-20T16:28:47.872Z,100.00
2023-12-20T16:31:15.902Z,100.00
2023-12-20T16:33:44.077Z,100.00
2023-12-20T16:36:12.100Z,100.00
2023-12-20T16:38:40.364Z,100.00
2023-12-20T16:41:09.724Z,100.00
2023-12-20T16:43:37.723Z,100.00
2023-12-20T16:46:06.766Z,100.00
2023-12-20T16:48:35.212Z,100.00
2023-12-20T16:51:03.514Z,100.00
2023-12-20T16:53:31.434Z,100.00
2023-12-20T16:56:01.189Z,100.00
2023-12-20T16:58:30.557Z,100.00
2023-12-20T17:00:59.429Z,100.00
2023-12-20T17:03:27.556Z,100.00
2023-12-20T17:05:55.632Z,100.00
2023-12-20T17:08:23.578Z,100.00
2023-12-20T17:10:51.538Z,100.00
2023-12-20T17:13:19.579Z,100.00
2023-12-20T17:15:49.380Z,100.00
2023-12-20T17:18:17.419Z,100.00
2023-12-20T17:20:45.395Z,100.00
2023-12-20T17:23:13.419Z,100.00
2023-12-20T17:25:42.106Z,100.00
2023-12-20T17:28:12.811Z,100.00
2023-12-20T17:30:41.177Z,100.00
2023-12-20T17:33:11.070Z,100.00
2023-12-20T17:35:39.071Z,100.00
2023-12-20T17:38:07.442Z,100.00
2023-12-20T17:40:37.221Z,100.00
2023-12-20T17:43:05.479Z,100.00
2023-12-20T17:45:33.480Z,100.00
2023-12-20T17:48:04.011Z,100.00
2023-12-20T17:50:33.591Z,100.00
2023-12-20T17:53:01.575Z,100.00
2023-12-20T17:55:32.263Z,100.00
2023-12-20T17:58:03.166Z,100.00
2023-12-20T18:00:35.231Z,100.00
2023-12-20T18:03:03.432Z,100.00
2023-12-20T18:05:31.443Z,100.00
2023-12-20T18:08:00.747Z,100.00
2023-12-20T18:10:29.929Z,100.00
2023-12-20T18:12:59.126Z,100.00
2023-12-20T18:15:27.109Z,100.00
2023-12-20T18:17:55.070Z,100.00
2023-12-20T18:20:23.242Z,100.00
2023-12-20T18:22:51.310Z,100.00
2023-12-20T18:25:20.773Z,100.00
2023-12-20T18:27:48.959Z,100.00
2023-12-20T18:30:17.848Z,100.00
2023-12-20T18:32:46.122Z,100.00
2023-12-20T18:35:14.330Z,100.00
2023-12-20T18:37:42.481Z,100.00
2023-12-20T18:40:11.972Z,100.00
2023-12-20T18:42:42.055Z,100.00
2023-12-20T18:45:10.842Z,100.00
2023-12-20T18:47:38.865Z,100.00
2023-12-20T18:50:10.000Z,100.00
2023-12-20T18:52:38.223Z,100.00
2023-12-20T18:55:07.212Z,100.00
2023-12-20T18:57:35.251Z,100.00
2023-12-20T19:00:05.517Z,100.00
2023-12-20T19:02:35.725Z,100.00
2023-12-20T19:05:04.183Z,100.00
2023-12-20T19:07:32.373Z,100.00
2023-12-20T19:10:00.706Z,100.00
2023-12-20T19:12:28.706Z,100.00
2023-12-20T19:14:56.611Z,100.00
2023-12-20T19:17:26.619Z,100.00
2023-12-20T19:19:54.770Z,100.00
2023-12-20T19:22:22.874Z,100.00
2023-12-20T19:24:50.907Z,100.00
2023-12-20T19:27:18.889Z,100.00
2023-12-20T19:29:46.844Z,100.00
2023-12-20T19:32:14.860Z,100.00
2023-12-20T19:34:44.330Z,100.00
2023-12-20T19:37:12.614Z,100.00
2023-12-20T19:39:40.534Z,100.00
2023-12-20T19:42:08.482Z,100.00
2023-12-20T19:44:36.459Z,100.00
2023-12-20T19:47:04.695Z,100.00
2023-12-20T19:49:32.974Z,100.00
2023-12-20T19:52:03.404Z,100.00
2023-12-20T19:54:31.423Z,100.00
2023-12-20T19:56:59.403Z,100.00
2023-12-20T19:59:27.376Z,100.00
2023-12-20T20:01:56.370Z,100.00
2023-12-20T20:04:25.939Z,100.00
2023-12-20T20:06:54.128Z,100.00
2023-12-20T20:09:23.486Z,100.00
2023-12-20T20:11:51.497Z,100.00
2023-12-20T20:14:19.427Z,100.00
2023-12-20T20:16:47.409Z,100.00
2023-12-20T20:19:15.476Z,100.00
2023-12-20T20:21:43.462Z,100.00
2023-12-20T20:24:11.431Z,100.00
2023-12-20T20:26:40.869Z,100.00
2023-12-20T20:29:09.447Z,100.00
2023-12-20T20:31:37.789Z,100.00
2023-12-20T20:34:06.458Z,100.00
2023-12-20T20:36:34.552Z,100.00
2023-12-20T20:39:02.583Z,100.00
2023-12-20T20:41:31.915Z,100.00
2023-12-20T20:44:01.271Z,100.00
2023-12-20T20:46:30.694Z,100.00
2023-12-20T20:48:58.913Z,100.00
2023-12-20T20:51:26.945Z,100.00
2023-12-20T20:54:05.074Z,100.00
2023-12-20T20:56:39.918Z,100.00
2023-12-20T20:59:09.248Z,100.00
2023-12-20T21:01:37.939Z,100.00
2023-12-20T21:04:06.465Z,100.00
2023-12-20T21:06:35.102Z,100.00
2023-12-20T21:09:03.178Z,100.00
2023-12-20T21:11:31.538Z,100.00
2023-12-20T21:13:59.615Z,100.00
2023-12-20T21:16:29.116Z,100.00
2023-12-20T21:18:57.188Z,100.00
2023-12-20T21:21:25.187Z,100.00
2023-12-20T21:23:53.186Z,100.00
2023-12-20T21:26:21.091Z,100.00
2023-12-20T21:28:49.483Z,100.00
2023-12-20T21:31:17.574Z,100.00
2023-12-20T21:33:47.264Z,100.00
2023-12-20T21:36:17.851Z,100.00
2023-12-20T21:38:45.824Z,100.00
2023-12-20T21:41:21.378Z,100.00
2023-12-20T21:43:51.354Z,100.00
2023-12-20T21:46:19.447Z,100.00
2023-12-20T21:48:48.790Z,100.00
2023-12-20T21:51:18.686Z,100.00
2023-12-20T21:53:46.697Z,100.00
2023-12-20T21:56:14.689Z,100.00
2023-12-20T21:58:43.008Z,100.00
2023-12-20T22:01:11.032Z,100.00
2023-12-20T22:03:41.419Z,100.00
2023-12-20T22:06:11.400Z,100.00
2023-12-20T22:08:39.742Z,100.00
2023-12-20T22:11:07.739Z,100.00
2023-12-20T22:13:35.836Z,100.00
2023-12-20T22:16:03.870Z,100.00
2023-12-20T22:18:31.839Z,100.00
2023-12-20T22:21:00.602Z,100.00
2023-12-20T22:23:30.006Z,100.00
2023-12-20T22:25:58.049Z,100.00
2023-12-20T22:28:26.145Z,100.00
2023-12-20T22:30:54.683Z,100.00
2023-12-20T22:33:22.811Z,100.00
2023-12-20T22:35:50.807Z,100.00
2023-12-20T22:38:18.829Z,100.00
2023-12-20T22:40:48.191Z,100.00
2023-12-20T22:43:16.192Z,100.00
2023-12-20T22:45:44.367Z,100.00
2023-12-20T22:48:12.495Z,100.00
2023-12-20T22:50:43.695Z,100.00
2023-12-20T22:53:11.685Z,100.00
2023-12-20T22:55:39.644Z,100.00
2023-12-20T22:58:09.130Z,100.00
2023-12-20T23:00:39.240Z,100.00
2023-12-20T23:03:07.244Z,100.00
2023-12-20T23:05:36.135Z,100.00
2023-12-20T23:08:04.439Z,100.00
2023-12-20T23:10:33.580Z,100.00
2023-12-20T23:13:02.326Z,100.00
2023-12-20T23:15:34.161Z,100.00
2023-12-20T23:18:02.290Z,100.00
2023-12-20T23:20:30.251Z,100.00
2023-12-20T23:22:58.172Z,100.00
2023-12-20T23:25:26.136Z,100.00
2023-12-20T23:27:54.617Z,100.00
2023-12-20T23:30:22.790Z,100.00
2023-12-20T23:32:52.244Z,100.00
2023-12-20T23:35:20.435Z,100.00
2023-12-20T23:37:49.307Z,100.00
2023-12-20T23:40:17.533Z,100.00
2023-12-20T23:42:45.461Z,100.00
2023-12-20T23:45:13.494Z,100.00
2023-12-20T23:47:41.453Z,100.00
2023-12-20T23:50:12.163Z,100.00
2023-12-20T23:52:40.272Z,100.00
2023-12-20T23:55:11.617Z,100.00
2023-12-20T23:57:40.747Z,100.00
